Latest Weather Observations for Moss Vale

IDN60801

Issued at 9:32 pm EST Tuesday 21 April 2015 (issued every 30 minutes, with the page automatically refreshed every 10 minutes)

About weather observations | Map of weather stations | Latest weather observations for NSW | Other Formats
Station Details ID: 068239 Name: MOSS VALE AWS Lat: -34.53 Lon: 150.42 Height: 678.4 m
Data from the previous 72 hours. | See also: Recent months at Moss Vale
Date/Time
EST
Temp
°C
App
Temp
°C
Dew
Point
Rel
Hum
%
Delta-T
°C
Wind Press
QNH
hPa
Press
MSL
hPa
Rain
since 9 am
mm
Dir
 
Spd
km/h
Gust
km/h
Spd
kts
Gust
kts
21/09:30pm 9.2 2.8 8.7 97 0.3 S 32 46 17 25 1019.5 1018.2 15.6
21/09:00pm 9.2 2.8 8.6 96 0.3 S 32 46 17 25 1019.6 1018.3 14.6
21/08:30pm 9.2 3.2 8.6 96 0.3 S 30 43 16 23 1019.9 1018.6 13.8
21/08:12pm 9.2 2.6 8.6 96 0.3 S 33 57 18 31 1019.8 1018.5 13.2
21/08:08pm 9.3 2.7 8.7 96 0.3 S 33 57 18 31 1019.8 1018.5 13.0
21/08:02pm 9.3 2.4 8.7 96 0.3 S 35 50 19 27 1020.0 1018.7 12.8
21/08:00pm 9.3 2.4 8.7 96 0.3 S 35 50 19 27 1020.1 1018.8 12.8
21/07:52pm 9.3 2.3 8.5 95 0.4 SSE 35 50 19 27 1020.4 1019.2 12.2
21/07:48pm 9.3 1.9 8.5 95 0.4 SSE 37 48 20 26 1020.4 1019.2 12.0
21/07:30pm 9.3 3.3 8.7 96 0.3 SSE 30 56 16 30 1020.6 1019.4 10.6
21/07:00pm 9.2 2.2 8.4 95 0.4 S 35 56 19 30 1020.2 1018.9 7.4
21/06:30pm 9.2 0.6 8.3 94 0.5 S 43 69 23 37 1019.7 1018.4 6.2
21/06:00pm 9.0 0.4 8.2 95 0.4 S 43 65 23 35 1019.7 1018.4 5.2
21/05:42pm 9.1 0.5 8.2 94 0.5 S 43 63 23 34 1019.6 1018.3 4.2
21/05:30pm 9.1 0.3 8.0 93 0.5 S 44 65 24 35 1019.5 1018.2 3.8
21/05:17pm 9.2 0.3 7.8 91 0.7 S 44 69 24 37 1019.7 1018.4 3.6
21/05:06pm 9.1 2.0 8.0 93 0.5 S 35 56 19 30 1019.9 1018.6 3.4
21/05:00pm 9.1 2.4 8.0 93 0.5 S 33 48 18 26 1020.0 1018.7 3.4
21/04:57pm 9.1 2.0 7.9 92 0.6 S 35 57 19 31 1019.9 1018.6 3.4
21/04:51pm 9.1 1.2 7.9 92 0.6 S 39 69 21 37 1020.0 1018.7 3.4
21/04:38pm 9.1 0.4 7.5 90 0.8 S 43 67 23 36 1020.0 1018.7 3.2
21/04:30pm 9.0 0.7 7.8 92 0.6 S 41 63 22 34 1020.0 1018.7 3.2
21/04:16pm 8.7 0.3 7.5 92 0.6 S 41 65 22 35 1019.9 1018.6 3.2
21/04:15pm 8.7 0.3 7.5 92 0.6 S 41 65 22 35 1019.9 1018.6 3.2
21/04:09pm 8.7 0.0 7.5 92 0.6 S 43 61 23 33 1019.8 1018.5 3.0
21/04:01pm 8.6 -1.1 7.4 92 0.6 S 48 70 26 38 1019.8 1018.5 3.0
21/04:00pm 8.6 -1.1 7.4 92 0.6 S 48 70 26 38 1019.7 1018.4 3.0
21/03:33pm 9.0 1.1 7.9 93 0.5 S 39 61 21 33 1019.9 1018.6 2.8
21/03:30pm 9.2 1.8 8.3 94 0.5 S 37 50 20 27 1020.1 1018.8 2.8
21/03:16pm 9.1 0.9 8.0 93 0.5 S 41 63 22 34 1020.3 1019.0 2.6
21/03:01pm 9.1 0.9 8.0 93 0.5 S 41 59 22 32 1020.5 1019.3 2.4
21/03:00pm 9.0 0.3 7.8 92 0.6 S 43 59 23 32 1020.5 1019.3 2.4
21/02:43pm 9.1 0.4 7.5 90 0.8 S 43 67 23 36 1020.3 1019.0 2.2
21/02:41pm 9.2 0.5 7.5 89 0.8 S 43 67 23 36 1020.2 1018.9 2.2
21/02:35pm 9.4 1.0 7.5 88 0.9 SSE 41 57 22 31 1020.4 1019.2 2.2
21/02:30pm 9.5 0.8 7.6 88 0.9 SSE 43 72 23 39 1020.5 1019.3 2.2
21/02:29pm 9.5 0.8 7.6 88 0.9 SSE 43 72 23 39 1020.4 1019.2 2.2
21/02:10pm 9.7 1.5 8.1 90 0.8 SSE 41 61 22 33 1020.3 1019.0 2.0
21/02:00pm 9.7 2.2 8.0 89 0.8 S 37 57 20 31 1020.5 1019.3 2.0
21/01:58pm 9.9 2.1 8.3 90 0.8 S 39 65 21 35 1020.5 1019.3 2.0
21/01:30pm 10.0 0.5 8.3 89 0.9 SSE 48 69 26 37 1020.6 1019.4 2.0
21/01:19pm 9.7 0.6 8.3 91 0.7 SSE 46 65 25 35 1020.5 1019.3 2.0
21/01:13pm 9.8 0.3 8.4 91 0.7 SSE 48 72 26 39 1020.6 1019.4 2.0
21/01:03pm 9.5 0.3 8.1 91 0.7 SSE 46 69 25 37 1020.6 1019.4 2.0
21/01:00pm 9.6 0.4 8.0 90 0.8 SSE 46 69 25 37 1020.6 1019.4 2.0
21/12:30pm 10.2 1.1 8.5 89 0.9 SSE 46 65 25 35 1020.8 1019.6 2.0
21/12:20pm 10.3 2.1 8.4 88 1.0 SSE 41 61 22 33 1021.7 1020.5 2.0
21/12:02pm 10.4 1.9 9.2 92 0.6 SSE 44 70 24 38 1022.0 1020.8 2.0
21/12:00pm 9.8 0.6 8.2 90 0.8 SSE 46 70 25 38 1021.8 1020.6 2.0
21/11:45am 10.0 2.3 8.6 91 0.7 SSE 39 61 21 33 1022.3 1021.1 1.8
21/11:43am 10.0 2.2 8.4 90 0.8 SSE 39 61 21 33 1022.3 1021.1 1.8
21/11:35am 9.8 1.7 8.6 92 0.6 SSE 41 57 22 31 1022.6 1021.3 1.6
21/11:30am 9.5 1.3 8.3 92 0.6 SSE 41 57 22 31 1022.6 1021.3 1.6
21/11:27am 9.5 1.7 8.4 93 0.6 SSE 39 57 21 31 1022.6 1021.3 1.6
21/11:00am 9.2 1.0 8.1 93 0.5 SSE 41 59 22 32 1022.7 1021.4 1.6
21/10:53am 9.2 0.4 8.0 92 0.6 SSE 44 65 24 35 1022.7 1021.4 1.6
21/10:30am 9.2 0.0 8.0 92 0.6 SSE 46 65 25 35 1022.8 1021.5 1.2
21/10:16am 9.3 0.1 8.1 92 0.6 SSE 46 76 25 41 1022.7 1021.4 1.2
21/10:00am 9.4 1.2 8.3 93 0.6 SSE 41 61 22 33 1022.9 1021.6 1.0
21/09:34am 9.3 -0.2 8.2 93 0.6 SSE 48 69 26 37 1023.0 1021.8 0.6
21/09:30am 9.6 0.5 8.4 92 0.6 SSE 46 69 25 37 1022.9 1021.6 0.4
21/09:00am 9.5 0.7 8.1 91 0.7 SSE 44 70 24 38 1023.1 1021.9 55.8
21/08:52am 9.7 1.8 8.0 89 0.9 SSE 39 61 21 33 1023.0 1021.8 55.6
21/08:30am 9.1 0.5 6.4 83 1.3 SSE 41 69 22 37 1023.5 1022.3 55.4
21/08:00am 9.9 1.1 7.3 84 1.3 SSE 43 70 23 38 1023.2 1022.0 55.2
21/07:30am 9.4 0.5 7.0 85 1.2 SSE 43 65 23 35 1022.8 1021.5 55.2
21/07:04am 9.3 1.3 7.3 87 1.0 SSE 39 69 21 37 1023.0 1021.8 55.0
21/07:00am 9.4 0.4 7.2 86 1.1 SSE 44 69 24 37 1022.9 1021.6 55.0
21/06:41am 9.5 1.5 7.4 87 1.0 SSE 39 63 21 34 1022.9 1021.6 54.8
21/06:40am 9.4 1.7 7.3 87 1.0 SSE 37 52 20 28 1023.0 1021.8 54.8
21/06:32am 9.6 1.2 7.4 86 1.1 SSE 41 61 22 33 1022.8 1021.5 54.6
21/06:30am 9.7 1.0 7.5 86 1.1 SSE 43 61 23 33 1022.7 1021.4 54.6
21/06:16am 9.6 0.7 7.5 87 1.0 SSE 44 69 24 37 1022.7 1021.4 54.6
21/06:09am 9.8 1.5 7.6 86 1.1 SSE 41 69 22 37 1022.7 1021.4 54.4
21/06:00am 9.9 2.0 7.7 86 1.1 SSE 39 54 21 29 1022.8 1021.5 54.2
21/05:39am 9.9 2.6 7.3 84 1.3 SSE 35 54 19 29 1023.1 1021.9 54.2
21/05:30am 10.1 2.4 7.3 83 1.4 SSE 37 54 20 29 1023.0 1021.8 54.2
21/05:03am 10.0 1.6 7.4 84 1.3 SSE 41 59 22 32 1022.9 1021.6 54.2
21/05:00am 9.9 1.9 7.5 85 1.2 SSE 39 50 21 27 1023.0 1021.8 54.2
21/04:30am 9.8 1.5 7.9 88 0.9 SSE 41 59 22 32 1022.7 1021.4 54.2
21/04:00am 9.8 0.5 7.7 87 1.0 SSE 46 74 25 40 1022.8 1021.5 54.2
21/03:50am 9.6 0.8 7.9 89 0.8 SSE 44 65 24 35 1022.7 1021.4 54.2
21/03:30am 9.5 0.3 8.1 91 0.7 SSE 46 69 25 37 1022.8 1021.5 54.2
21/03:29am 9.5 0.7 8.1 91 0.7 SSE 44 69 24 37 1022.7 1021.4 54.2
21/03:26am 9.6 0.8 8.0 90 0.8 SSE 44 63 24 34 1022.9 1021.6 54.0
21/03:13am 9.3 0.6 7.7 90 0.8 SSE 43 72 23 39 1022.9 1021.6 54.0
21/03:00am 9.3 0.6 7.7 90 0.8 SSE 43 57 23 31 1023.0 1021.8 54.0
21/02:55am 9.3 0.5 7.9 91 0.7 SSE 44 65 24 35 1023.1 1021.9 53.8
21/02:50am 9.3 0.4 7.7 90 0.8 SSE 44 65 24 35 1022.9 1021.6 53.8
21/02:39am 9.4 1.2 8.2 92 0.6 SSE 41 63 22 34 1023.1 1021.9 53.8
21/02:35am 9.5 1.7 8.4 93 0.6 SSE 39 63 21 34 1023.3 1022.1 53.8
21/02:30am 9.5 1.7 8.4 93 0.6 SSE 39 54 21 29 1023.3 1022.1 53.8
21/02:28am 9.4 1.6 8.3 93 0.6 SSE 39 54 21 29 1023.3 1022.1 53.8
21/02:21am 9.4 2.4 8.3 93 0.6 SSE 35 57 19 31 1023.4 1022.2 53.8
21/02:03am 9.1 1.6 7.9 92 0.6 SSE 37 56 20 30 1023.6 1022.4 53.6
21/02:00am 9.1 1.2 7.9 92 0.6 SSE 39 56 21 30 1023.6 1022.4 53.6
21/01:30am 9.4 1.3 8.5 94 0.5 SSE 41 65 22 35 1024.0 1022.8 53.4
21/01:14am 9.3 1.1 8.4 94 0.5 SSE 41 61 22 33 1024.4 1023.2 53.2
21/01:04am 9.4 0.7 8.5 94 0.5 SE 44 67 24 36 1024.4 1023.2 53.0
21/01:00am 9.5 1.0 8.7 95 0.4 SE 43 67 23 36 1024.5 1023.3 53.0
21/12:53am 9.4 1.7 8.6 95 0.4 SSE 39 65 21 35 1024.6 1023.4 53.0
21/12:30am 9.7 0.3 8.9 95 0.4 SSE 48 70 26 38 1024.5 1023.3 52.2
21/12:00am 9.5 1.5 8.9 96 0.3 SSE 41 72 22 39 1024.5 1023.3 51.0
 
Date/Time
EST
Temp
°C
App
Temp
°C
Dew
Point
Rel
Hum
%
Delta-T
°C
Wind Press
QNH
hPa
Press
MSL
hPa
Rain
since 9 am
mm
Dir
 
Spd
km/h
Gust
km/h
Spd
kts
Gust
kts
20/11:30pm 9.5 1.1 8.9 96 0.3 SSE 43 63 23 34 1024.7 1023.5 50.0
20/11:00pm 9.5 1.5 8.9 96 0.3 SSE 41 67 22 36 1025.1 1023.9 49.4
20/10:30pm 9.3 1.6 8.7 96 0.3 SSE 39 59 21 32 1025.3 1024.1 48.6
20/10:00pm 9.6 1.0 9.0 96 0.3 SSE 44 65 24 35 1025.4 1024.2 47.4
20/09:31pm 9.7 1.3 9.1 96 0.3 SSE 43 67 23 36 1025.9 1024.7 45.8
20/09:30pm 9.7 1.7 9.1 96 0.3 SSE 41 57 22 31 1025.9 1024.7 45.8
20/09:03pm 9.5 1.1 8.9 96 0.3 SSE 43 65 23 35 1025.8 1024.6 44.4
20/09:00pm 9.5 0.9 8.9 96 0.3 SSE 44 65 24 35 1025.6 1024.5 44.2
20/08:39pm 9.7 0.4 9.2 97 0.3 SSE 48 67 26 36 1025.3 1024.1 43.0
20/08:38pm 9.8 0.2 9.3 97 0.3 SSE 50 67 27 36 1025.3 1024.1 43.0
20/08:30pm 9.8 0.2 9.3 97 0.3 SSE 50 70 27 38 1025.2 1024.0 42.4
20/08:11pm 9.6 1.6 9.1 97 0.3 SSE 41 59 22 32 1025.3 1024.1 41.6
20/08:00pm 9.5 0.1 8.9 96 0.3 SSE 48 61 26 33 1025.2 1024.0 41.0
20/07:30pm 9.6 0.3 9.0 96 0.3 SSE 48 76 26 41 1024.7 1023.5 39.2
20/07:20pm 9.8 1.3 9.2 96 0.3 SSE 44 63 24 34 1024.7 1023.5 38.8
20/07:17pm 9.8 0.9 9.2 96 0.3 SSE 46 72 25 39 1024.5 1023.3 38.6
20/07:00pm 9.9 2.7 9.3 96 0.3 SSE 37 56 20 30 1024.6 1023.4 37.6
20/06:46pm 10.0 1.5 9.4 96 0.3 SSE 44 67 24 36 1024.6 1023.4 36.6
20/06:45pm 10.0 1.2 9.4 96 0.3 SSE 46 67 25 36 1024.5 1023.3 36.6
20/06:30pm 9.8 1.9 9.3 97 0.3 SSE 41 61 22 33 1024.5 1023.3 35.8
20/06:16pm 9.7 2.9 9.2 97 0.3 SSE 35 65 19 35 1023.9 1022.7 34.6
20/06:00pm 9.8 2.6 9.3 97 0.3 SSE 37 50 20 27 1024.2 1022.9 32.8
20/05:53pm 9.7 3.5 9.2 97 0.3 S 32 50 17 27 1023.9 1022.7 32.2
20/05:30pm 9.6 3.1 9.1 97 0.3 SSE 33 48 18 26 1024.4 1023.2 29.4
20/05:09pm 9.7 2.9 9.2 97 0.3 S 35 54 19 29 1024.3 1023.1 27.4
20/05:06pm 9.7 2.1 9.2 97 0.3 S 39 54 21 29 1024.2 1022.9 27.2
20/05:00pm 9.8 2.3 9.3 97 0.3 S 39 59 21 32 1024.0 1022.8 26.6
20/04:59pm 9.8 2.3 9.3 97 0.3 S 39 59 21 32 1023.9 1022.7 26.4
20/04:30pm 9.6 2.0 9.1 97 0.3 SSE 39 57 21 31 1024.2 1022.9 24.0
20/04:00pm 9.9 1.4 9.3 96 0.3 SSE 44 69 24 37 1023.7 1022.5 20.6
20/03:34pm 9.7 3.5 9.2 97 0.3 SSE 32 54 17 29 1024.4 1023.2 17.8
20/03:30pm 9.6 3.7 9.1 97 0.3 S 30 41 16 22 1024.5 1023.3 17.4
20/03:00pm 9.6 2.0 9.0 96 0.3 S 39 56 21 30 1024.2 1022.9 14.2
20/02:33pm 10.0 2.5 9.4 96 0.3 SSE 39 57 21 31 1023.7 1022.5 11.4
20/02:30pm 10.0 1.7 9.4 96 0.3 SSE 43 57 23 31 1023.6 1022.4 11.4
20/02:00pm 9.8 2.2 9.2 96 0.3 S 39 59 21 32 1023.2 1022.0 9.8
20/01:30pm 9.8 1.3 9.2 96 0.3 S 44 69 24 37 1023.2 1022.0 7.2
20/01:00pm 9.8 2.2 9.2 96 0.3 SSE 39 57 21 31 1024.5 1023.3 5.8
20/12:58pm 9.7 2.1 8.9 95 0.4 SSE 39 57 21 31 1024.5 1023.3 5.6
20/12:54pm 9.8 2.6 9.0 95 0.4 SSE 37 52 20 28 1024.7 1023.5 5.4
20/12:48pm 9.8 3.5 9.0 95 0.4 S 32 52 17 28 1024.8 1023.6 5.0
20/12:38pm 9.7 3.4 8.9 95 0.4 S 32 46 17 25 1025.2 1024.0 4.4
20/12:30pm 9.5 3.1 8.7 95 0.4 SSE 32 46 17 25 1025.2 1024.0 3.8
20/12:01pm 9.5 2.6 8.7 95 0.4 SSE 35 54 19 29 1025.6 1024.5 2.6
20/12:00pm 9.6 2.3 8.8 95 0.4 SSE 37 54 20 29 1025.5 1024.4 2.6
20/11:37am 9.3 2.7 8.5 95 0.4 SSE 33 57 18 31 1025.4 1024.2 2.0
20/11:30am 9.3 2.7 8.5 95 0.4 SSE 33 50 18 27 1025.4 1024.2 1.8
20/11:00am 9.2 0.1 8.3 94 0.4 SSE 46 65 25 35 1025.5 1024.4 1.4
20/10:30am 9.3 0.8 8.5 95 0.4 SSE 43 63 23 34 1025.9 1024.7 1.0
20/10:06am 9.1 1.7 8.3 95 0.4 SSE 37 69 20 37 1025.8 1024.6 0.6
20/10:00am 9.1 2.1 8.3 95 0.4 SSE 35 50 19 27 1025.8 1024.6 0.6
20/09:30am 8.9 1.8 8.1 95 0.4 SSE 35 59 19 32 1025.6 1024.5 0.2
20/09:00am 9.0 1.6 8.4 96 0.3 SSE 37 56 20 30 1025.6 1024.5 7.0
20/08:42am 8.5 1.4 7.9 96 0.3 S 35 54 19 29 1026.0 1024.8 6.8
20/08:30am 8.5 1.7 7.9 96 0.3 SSE 33 46 18 25 1026.3 1025.1 6.8
20/08:04am 8.2 1.5 7.4 95 0.4 SSE 32 50 17 27 1026.1 1024.9 6.6
20/08:00am 8.2 1.9 7.4 95 0.4 SSE 30 43 16 23 1026.3 1025.1 6.4
20/07:44am 8.2 1.9 7.4 95 0.4 SSE 30 50 16 27 1026.1 1024.9 6.2
20/07:36am 8.2 1.9 7.6 96 0.3 S 30 44 16 24 1026.5 1025.3 6.2
20/07:30am 8.1 1.3 7.5 96 0.3 S 33 56 18 30 1026.3 1025.1 6.2
20/07:20am 7.9 2.0 7.3 96 0.3 S 28 48 15 26 1025.9 1024.7 6.2
20/07:19am 7.9 2.3 7.3 96 0.3 S 26 41 14 22 1025.9 1024.7 6.2
20/07:05am 7.8 0.9 7.2 96 0.3 S 33 52 18 28 1025.3 1024.1 6.2
20/07:00am 7.9 1.2 7.3 96 0.3 S 32 46 17 25 1025.3 1024.1 6.2
20/06:37am 7.7 0.4 7.1 96 0.3 S 35 57 19 31 1024.8 1023.6 6.0
20/06:30am 7.7 -0.4 7.1 96 0.3 S 39 54 21 29 1024.8 1023.6 6.0
20/06:16am 7.7 1.3 7.1 96 0.3 S 30 50 16 27 1024.9 1023.7 6.0
20/06:00am 7.5 0.5 6.9 96 0.3 S 33 50 18 27 1025.2 1024.0 5.6
20/05:35am 7.3 1.2 6.7 96 0.3 S 28 48 15 26 1025.1 1023.9 5.2
20/05:30am 7.2 1.5 6.6 96 0.3 S 26 44 14 24 1025.3 1024.1 5.0
20/05:00am 7.1 1.4 6.5 96 0.3 S 26 41 14 22 1024.9 1023.7 4.2
20/04:38am 6.9 0.7 6.3 96 0.3 S 28 48 15 26 1024.7 1023.5 4.0
20/04:30am 7.0 1.6 6.3 95 0.3 S 24 41 13 22 1024.9 1023.7 4.0
20/04:03am 6.8 0.6 6.1 95 0.3 S 28 50 15 27 1024.8 1023.6 3.8
20/04:00am 6.8 0.6 6.1 95 0.3 S 28 43 15 23 1024.7 1023.5 3.8
20/03:57am 6.7 0.5 6.0 95 0.3 S 28 35 15 19 1024.9 1023.7 3.8
20/03:30am 6.5 0.6 5.8 95 0.3 S 26 39 14 21 1024.8 1023.6 3.8
20/03:00am 6.3 -0.4 5.6 95 0.3 S 30 44 16 24 1024.8 1023.6 3.8
20/02:37am 6.2 0.2 5.5 95 0.3 S 26 39 14 21 1025.0 1023.8 3.6
20/02:33am 6.2 -0.1 5.5 95 0.3 S 28 46 15 25 1025.1 1023.9 3.6
20/02:30am 6.2 -0.5 5.5 95 0.3 S 30 46 16 25 1025.0 1023.8 3.6
20/02:28am 6.2 -0.5 5.5 95 0.3 S 30 48 16 26 1024.9 1023.7 3.6
20/02:27am 6.2 -0.9 5.5 95 0.3 S 32 48 17 26 1024.8 1023.6 3.6
20/02:25am 6.2 -0.9 5.5 95 0.3 S 32 48 17 26 1024.8 1023.6 3.6
20/02:19am 6.2 -0.5 5.5 95 0.3 S 30 48 16 26 1024.9 1023.7 3.6
20/02:00am 6.3 0.0 5.6 95 0.3 S 28 35 15 19 1025.5 1024.4 3.6
20/01:30am 6.4 0.5 5.7 95 0.3 S 26 41 14 22 1025.8 1024.6 3.6
20/01:00am 6.7 0.5 6.0 95 0.3 S 28 44 15 24 1026.1 1024.9 3.4
20/12:44am 6.8 0.6 6.1 95 0.3 S 28 46 15 25 1026.0 1024.8 3.4
20/12:30am 6.8 1.0 6.1 95 0.3 S 26 37 14 20 1026.3 1025.1 3.4
20/12:05am 7.0 1.6 6.3 95 0.3 SSW 24 35 13 19 1026.6 1025.4 3.2
20/12:00am 7.0 1.6 6.3 95 0.3 SSW 24 32 13 17 1026.6 1025.4 3.2
 
Date/Time
EST
Temp
°C
App
Temp
°C
Dew
Point
Rel
Hum
%
Delta-T
°C
Wind Press
QNH
hPa
Press
MSL
hPa
Rain
since 9 am
mm
Dir
 
Spd
km/h
Gust
km/h
Spd
kts
Gust
kts
19/11:40pm 7.1 2.1 6.4 95 0.3 SSW 22 32 12 17 1026.5 1025.3 3.2
19/11:30pm 7.1 1.3 6.4 95 0.3 S 26 43 14 23 1026.5 1025.3 3.2
19/11:12pm 7.1 1.7 6.5 96 0.3 S 24 33 13 18 1026.3 1025.1 3.2
19/11:00pm 7.1 1.7 6.4 95 0.3 S 24 37 13 20 1026.2 1025.0 3.2
19/10:30pm 7.2 2.2 6.5 95 0.3 S 22 32 12 17 1026.7 1025.5 2.8
19/10:12pm 7.2 2.6 6.5 95 0.3 S 20 32 11 17 1026.6 1025.4 2.8
19/10:00pm 7.2 3.2 6.5 95 0.3 S 17 26 9 14 1026.6 1025.4 2.6
19/09:59pm 7.2 3.2 6.5 95 0.3 S 17 26 9 14 1026.6 1025.4 2.6
19/09:53pm 7.2 3.2 6.5 95 0.3 S 17 32 9 17 1026.5 1025.3 2.6
19/09:30pm 7.3 2.9 6.4 94 0.4 S 19 26 10 14 1026.4 1025.2 2.4
19/09:00pm 7.2 2.5 6.1 93 0.5 S 20 30 11 16 1026.2 1025.0 2.2
19/08:30pm 7.1 2.6 6.2 94 0.4 S 19 26 10 14 1025.8 1024.6 2.2
19/08:00pm 7.0 2.9 6.4 96 0.3 SSW 17 24 9 13 1025.6 1024.5 2.2
19/07:30pm 7.0 2.5 6.1 94 0.4 S 19 30 10 16 1025.4 1024.2 2.0
19/07:00pm 6.8 1.7 5.9 94 0.4 S 22 39 12 21 1024.8 1023.6 2.0
19/06:30pm 6.8 1.3 6.1 95 0.3 S 24 37 13 20 1024.5 1023.3 1.8
19/06:00pm 6.9 1.8 6.2 95 0.3 S 22 33 12 18 1024.0 1022.8 1.6
19/05:30pm 7.3 2.0 6.6 95 0.3 S 24 39 13 21 1023.7 1022.5 1.4
19/05:00pm 7.5 1.8 6.6 94 0.4 S 26 43 14 23 1023.2 1022.0 1.2
19/04:30pm 8.7 4.0 7.9 95 0.4 SSE 22 32 12 17 1022.6 1021.3 0.6
19/04:16pm 9.0 4.0 8.1 94 0.4 SSE 24 37 13 20 1022.3 1021.1 0.6
19/04:00pm 9.2 5.0 8.4 95 0.4 SE 20 30 11 16 1022.0 1020.8 0.6
19/03:55pm 9.3 4.4 8.5 95 0.4 SE 24 32 13 17 1021.9 1020.7 0.6
19/03:41pm 9.5 5.0 8.6 94 0.5 SE 22 32 12 17 1021.8 1020.6 0.6
19/03:30pm 9.7 4.1 8.6 93 0.6 SE 28 35 15 19 1021.7 1020.5 0.6
19/03:23pm 9.9 4.7 9.0 94 0.5 SE 26 35 14 19 1021.6 1020.3 0.6
19/03:19pm 10.3 5.6 9.4 94 0.5 SSE 24 33 13 18 1021.6 1020.3 0.6
19/03:17pm 10.3 5.6 9.4 94 0.5 SSE 24 33 13 18 1021.5 1020.2 0.6
19/03:00pm 10.2 5.0 9.0 92 0.6 SSE 26 33 14 18 1021.3 1020.0 0.4
19/02:55pm 10.4 5.3 9.2 92 0.6 SSE 26 33 14 18 1021.4 1020.1 0.4
19/02:40pm 11.2 7.0 9.8 91 0.7 SSE 22 30 12 16 1021.3 1020.0 0.2
19/02:30pm 11.5 7.4 10.1 91 0.7 SE 22 32 12 17 1021.1 1019.8 0.2
19/02:21pm 11.6 7.6 10.3 92 0.7 SE 22 30 12 16 1020.9 1019.7 0.2
19/02:02pm 12.2 8.2 10.6 90 0.9 SE 22 32 12 17 1020.7 1019.5 0.2
19/02:00pm 12.2 8.2 10.6 90 0.9 SE 22 32 12 17 1020.7 1019.5 0.2
19/01:30pm 12.9 9.1 9.9 82 1.6 SE 20 30 11 16 1020.6 1019.4 0.0
19/01:00pm 14.7 10.9 9.9 73 2.6 ESE 20 30 11 16 1020.4 1019.2 0.0
19/12:30pm 14.9 11.0 10.9 77 2.2 SE 22 30 12 16 1020.5 1019.3 0.0
19/12:00pm 15.0 11.5 8.7 66 3.3 S 17 24 9 13 1020.7 1019.5 0.0
19/11:30am 14.7 11.6 8.9 68 3.1 S 15 20 8 11 1020.9 1019.7 0.0
19/11:00am 15.7 12.4 9.6 67 3.3 S 17 22 9 12 1020.8 1019.6 0.0
19/10:30am 15.0 10.9 7.8 62 3.7 SSW 19 24 10 13 1020.7 1019.5 0.0
19/10:00am 14.7 10.9 8.9 68 3.0 SW 19 24 10 13 1020.5 1019.3 0.0
19/09:30am 13.6 9.3 7.8 68 3.0 SW 20 28 11 15 1020.4 1019.2 0.0
19/09:00am 13.0 9.8 8.3 73 2.4 WSW 15 20 8 11 1020.2 1018.9 7.0
19/08:30am 12.2 8.1 8.5 78 1.9 WSW 20 28 11 15 1019.8 1018.5 7.0
19/08:00am 11.4 7.2 8.1 80 1.7 WSW 20 28 11 15 1019.2 1018.0 7.0
19/07:30am 10.9 7.2 8.0 82 1.5 WSW 17 20 9 11 1019.1 1017.9 7.0
19/07:00am 10.4 6.5 7.3 81 1.5 W 17 26 9 14 1018.5 1017.2 7.0
19/06:30am 10.4 6.6 7.5 82 1.4 W 17 24 9 13 1018.2 1016.9 7.0
19/06:00am 10.7 7.8 8.1 84 1.3 WNW 13 19 7 10 1017.2 1015.9 7.0
19/05:30am 11.4 7.6 7.7 78 1.9 WNW 17 22 9 12 1016.8 1015.5 7.0
19/05:00am 12.0 6.8 10.1 88 1.0 W 28 35 15 19 1016.4 1015.0 7.0
19/04:30am 12.5 10.2 11.6 94 0.5 W 15 28 8 15 1016.0 1014.7 7.0
19/04:00am 13.2 10.0 11.9 92 0.7 W 20 28 11 15 1015.9 1014.6 7.0
19/03:30am 13.1 9.3 11.3 89 1.0 W 22 28 12 15 1015.7 1014.4 7.0
19/03:00am 13.6 10.3 11.7 88 1.1 W 20 30 11 16 1015.6 1014.3 7.0
19/02:30am 13.8 10.6 11.8 88 1.1 W 20 28 11 15 1015.2 1013.9 7.0
19/02:00am 14.1 11.1 12.1 88 1.1 W 19 28 10 15 1015.3 1014.0 7.0
19/01:30am 14.2 12.1 12.4 89 1.0 WNW 15 22 8 12 1015.7 1014.4 7.0
19/01:00am 14.4 12.9 13.0 91 0.8 WNW 13 19 7 10 1015.8 1014.5 7.0
19/12:30am 14.8 13.0 13.2 90 0.9 WNW 15 22 8 12 1015.9 1014.6 7.0
19/12:00am 15.0 12.8 13.4 90 0.9 WNW 17 22 9 12 1015.9 1014.6 7.0
 
Date/Time
EST
Temp
°C
App
Temp
°C
Dew
Point
Rel
Hum
%
Delta-T
°C
Wind Press
QNH
hPa
Press
MSL
hPa
Rain
since 9 am
mm
Dir
 
Spd
km/h
Gust
km/h
Spd
kts
Gust
kts
18/11:30pm 15.1 13.8 13.8 92 0.8 NW 13 19 7 10 1016.1 1014.8 7.0
18/11:00pm 15.3 14.2 14.2 93 0.6 NW 13 19 7 10 1015.8 1014.5 7.0
18/10:30pm 15.6 12.8 14.3 92 0.8 WNW 22 37 12 20 1016.5 1015.2 7.0
18/10:00pm 16.0 14.2 14.5 91 0.9 NW 17 24 9 13 1016.6 1015.3 6.4

Other Formats:

Comma delimited format used in spreadsheet applications
http://www.bom.gov.au/fwo/IDN60801/IDN60801.94746.axf

JavaScript Object Notation format (JSON) in row-major order
http://www.bom.gov.au/fwo/IDN60801/IDN60801.94746.json